sensor_id;sensor_type;location;lat;lon;timestamp;pressure;altitude;pressure_sealevel;temperature;humidity
76321;BME280;65132;52.088;5.402;2023-04-01T00:01:30;99162.00;;;9.91;100.00
76321;BME280;65132;52.088;5.402;2023-04-01T00:03:56;99158.00;;;9.87;100.00
76321;BME280;65132;52.088;5.402;2023-04-01T00:06:25;99152.88;;;9.92;100.00
76321;BME280;65132;52.088;5.402;2023-04-01T00:08:52;99160.16;;;9.92;100.00
76321;BME280;65132;52.088;5.402;2023-04-01T00:11:18;99156.97;;;9.88;100.00
76321;BME280;65132;52.088;5.402;2023-04-01T00:13:48;99149.72;;;9.89;100.00
76321;BME280;65132;52.088;5.402;2023-04-01T00:16:15;99160.34;;;9.90;100.00
76321;BME280;65132;52.088;5.402;2023-04-01T00:18:44;99162.66;;;9.93;100.00
76321;BME280;65132;52.088;5.402;2023-04-01T00:21:15;99163.34;;;9.95;100.00
76321;BME280;65132;52.088;5.402;2023-04-01T00:23:48;99164.38;;;9.94;100.00
76321;BME280;65132;52.088;5.402;2023-04-01T00:26:14;99161.66;;;9.94;100.00
76321;BME280;65132;52.088;5.402;2023-04-01T00:28:40;99173.47;;;9.93;100.00
76321;BME280;65132;52.088;5.402;2023-04-01T00:31:08;99162.28;;;9.96;100.00
76321;BME280;65132;52.088;5.402;2023-04-01T00:33:40;99164.38;;;9.94;100.00
76321;BME280;65132;52.088;5.402;2023-04-01T00:36:14;99174.63;;;9.99;100.00
76321;BME280;65132;52.088;5.402;2023-04-01T00:38:41;99172.59;;;10.01;100.00
76321;BME280;65132;52.088;5.402;2023-04-01T00:41:13;99160.63;;;9.95;100.00
76321;BME280;65132;52.088;5.402;2023-04-01T00:43:40;99173.09;;;9.96;100.00
76321;BME280;65132;52.088;5.402;2023-04-01T00:46:07;99169.22;;;9.99;100.00
76321;BME280;65132;52.088;5.402;2023-04-01T00:48:36;99171.50;;;9.87;100.00
76321;BME280;65132;52.088;5.402;2023-04-01T00:51:07;99178.56;;;9.88;100.00
76321;BME280;65132;52.088;5.402;2023-04-01T00:53:40;99168.63;;;9.89;100.00
76321;BME280;65132;52.088;5.402;2023-04-01T00:56:13;99176.34;;;9.92;100.00
76321;BME280;65132;52.088;5.402;2023-04-01T00:58:44;99169.47;;;9.89;100.00
76321;BME280;65132;52.088;5.402;2023-04-01T01:01:12;99171.84;;;9.84;100.00
76321;BME280;65132;52.088;5.402;2023-04-01T01:03:41;99181.47;;;9.87;100.00
76321;BME280;65132;52.088;5.402;2023-04-01T01:09:14;99178.03;;;9.93;100.00
76321;BME280;65132;52.088;5.402;2023-04-01T01:11:52;99181.47;;;9.87;100.00
76321;BME280;65132;52.088;5.402;2023-04-01T01:17:34;99192.53;;;9.77;100.00
76321;BME280;65132;52.088;5.402;2023-04-01T01:28:36;99196.59;;;9.73;100.00
76321;BME280;65132;52.088;5.402;2023-04-01T01:31:20;99193.59;;;9.68;100.00
76321;BME280;65132;52.088;5.402;2023-04-01T01:34:00;99190.22;;;9.66;100.00
76321;BME280;65132;52.088;5.402;2023-04-01T01:36:33;99198.88;;;9.61;100.00
76321;BME280;65132;52.088;5.402;2023-04-01T01:39:04;99191.78;;;9.60;100.00
76321;BME280;65132;52.088;5.402;2023-04-01T01:41:34;99195.50;;;9.59;100.00
76321;BME280;65132;52.088;5.402;2023-04-01T01:44:06;99191.94;;;9.59;100.00
76321;BME280;65132;52.088;5.402;2023-04-01T01:46:38;99194.84;;;9.57;100.00
76321;BME280;65132;52.088;5.402;2023-04-01T01:49:10;99196.50;;;9.58;100.00
76321;BME280;65132;52.088;5.402;2023-04-01T01:51:40;99197.72;;;9.56;100.00
76321;BME280;65132;52.088;5.402;2023-04-01T01:54:16;99202.94;;;9.57;100.00
76321;BME280;65132;52.088;5.402;2023-04-01T01:56:46;99206.84;;;9.55;100.00
76321;BME280;65132;52.088;5.402;2023-04-01T01:59:14;99201.16;;;9.50;100.00
76321;BME280;65132;52.088;5.402;2023-04-01T02:01:46;99198.97;;;9.45;100.00
76321;BME280;65132;52.088;5.402;2023-04-01T02:04:15;99203.47;;;9.53;100.00
76321;BME280;65132;52.088;5.402;2023-04-01T02:06:55;99203.00;;;9.49;100.00
76321;BME280;65132;52.088;5.402;2023-04-01T02:09:22;99211.94;;;9.50;100.00
76321;BME280;65132;52.088;5.402;2023-04-01T02:12:04;99207.53;;;9.49;100.00
76321;BME280;65132;52.088;5.402;2023-04-01T02:17:25;99215.34;;;9.44;100.00
76321;BME280;65132;52.088;5.402;2023-04-01T02:19:59;99213.13;;;9.47;100.00
76321;BME280;65132;52.088;5.402;2023-04-01T02:22:37;99220.75;;;9.44;100.00
76321;BME280;65132;52.088;5.402;2023-04-01T02:25:12;99217.00;;;9.45;100.00
76321;BME280;65132;52.088;5.402;2023-04-01T02:27:44;99214.16;;;9.46;100.00
76321;BME280;65132;52.088;5.402;2023-04-01T02:30:13;99210.97;;;9.43;100.00
76321;BME280;65132;52.088;5.402;2023-04-01T02:32:40;99222.09;;;9.40;100.00
76321;BME280;65132;52.088;5.402;2023-04-01T02:35:17;99215.50;;;9.42;100.00
76321;BME280;65132;52.088;5.402;2023-04-01T02:37:45;99213.66;;;9.43;100.00
76321;BME280;65132;52.088;5.402;2023-04-01T02:40:13;99229.19;;;9.41;100.00
76321;BME280;65132;52.088;5.402;2023-04-01T02:42:40;99223.66;;;9.34;100.00
76321;BME280;65132;52.088;5.402;2023-04-01T02:45:11;99223.84;;;9.33;100.00
76321;BME280;65132;52.088;5.402;2023-04-01T02:47:40;99230.91;;;9.34;100.00
76321;BME280;65132;52.088;5.402;2023-04-01T02:50:08;99236.84;;;9.29;100.00
76321;BME280;65132;52.088;5.402;2023-04-01T02:52:35;99223.19;;;9.31;100.00
76321;BME280;65132;52.088;5.402;2023-04-01T02:55:04;99229.44;;;9.23;100.00
76321;BME280;65132;52.088;5.402;2023-04-01T02:57:33;99233.16;;;9.22;100.00
76321;BME280;65132;52.088;5.402;2023-04-01T02:59:59;99229.44;;;9.23;100.00
76321;BME280;65132;52.088;5.402;2023-04-01T03:02:26;99233.16;;;9.22;100.00
76321;BME280;65132;52.088;5.402;2023-04-01T03:04:52;99235.50;;;9.25;100.00
76321;BME280;65132;52.088;5.402;2023-04-01T03:07:18;99233.00;;;9.24;100.00
76321;BME280;65132;52.088;5.402;2023-04-01T03:09:45;99235.88;;;9.22;100.00
76321;BME280;65132;52.088;5.402;2023-04-01T03:12:14;99244.13;;;9.21;100.00
76321;BME280;65132;52.088;5.402;2023-04-01T03:14:43;99243.97;;;9.22;100.00
76321;BME280;65132;52.088;5.402;2023-04-01T03:17:17;99252.56;;;9.26;100.00
76321;BME280;65132;52.088;5.402;2023-04-01T03:19:43;99250.66;;;9.26;100.00
76321;BME280;65132;52.088;5.402;2023-04-01T03:22:11;99252.72;;;9.24;100.00
76321;BME280;65132;52.088;5.402;2023-04-01T03:24:37;99262.69;;;9.24;100.00
76321;BME280;65132;52.088;5.402;2023-04-01T03:27:06;99256.06;;;9.26;100.00
76321;BME280;65132;52.088;5.402;2023-04-01T03:29:35;99259.13;;;9.23;100.00
76321;BME280;65132;52.088;5.402;2023-04-01T03:32:04;99266.38;;;9.23;100.00
76321;BME280;65132;52.088;5.402;2023-04-01T03:34:31;99266.72;;;9.20;100.00
76321;BME280;65132;52.088;5.402;2023-04-01T03:36:58;99266.06;;;9.26;100.00
76321;BME280;65132;52.088;5.402;2023-04-01T03:39:24;99276.81;;;9.34;100.00
76321;BME280;65132;52.088;5.402;2023-04-01T03:41:56;99269.38;;;9.28;100.00
76321;BME280;65132;52.088;5.402;2023-04-01T03:44:22;99275.28;;;9.31;100.00
76321;BME280;65132;52.088;5.402;2023-04-01T03:46:49;99275.28;;;9.31;100.00
76321;BME280;65132;52.088;5.402;2023-04-01T03:49:17;99271.75;;;9.31;100.00
76321;BME280;65132;52.088;5.402;2023-04-01T03:51:46;99278.66;;;9.33;100.00
76321;BME280;65132;52.088;5.402;2023-04-01T03:54:15;99287.09;;;9.30;100.00
76321;BME280;65132;52.088;5.402;2023-04-01T03:56:44;99288.47;;;9.34;100.00
76321;BME280;65132;52.088;5.402;2023-04-01T03:59:21;99278.47;;;9.35;100.00
76321;BME280;65132;52.088;5.402;2023-04-01T04:01:50;99279.50;;;9.34;100.00
76321;BME280;65132;52.088;5.402;2023-04-01T04:04:17;99287.78;;;9.32;100.00
76321;BME280;65132;52.088;5.402;2023-04-01T04:06:47;99294.84;;;9.33;100.00
76321;BME280;65132;52.088;5.402;2023-04-01T04:09:13;99287.25;;;9.37;100.00
76321;BME280;65132;52.088;5.402;2023-04-01T04:11:39;99300.06;;;9.35;100.00
76321;BME280;65132;52.088;5.402;2023-04-01T04:14:15;99302.44;;;9.38;100.00
76321;BME280;65132;52.088;5.402;2023-04-01T04:16:43;99301.25;;;9.40;100.00
76321;BME280;65132;52.088;5.402;2023-04-01T04:19:09;99308.34;;;9.41;100.00
76321;BME280;65132;52.088;5.402;2023-04-01T04:21:36;99309.47;;;9.47;100.00
76321;BME280;65132;52.088;5.402;2023-04-01T04:24:02;99308.34;;;9.41;100.00
76321;BME280;65132;52.088;5.402;2023-04-01T04:26:30;99315.59;;;9.41;100.00
76321;BME280;65132;52.088;5.402;2023-04-01T04:29:00;99318.78;;;9.44;100.00
76321;BME280;65132;52.088;5.402;2023-04-01T04:31:27;99321.50;;;9.44;100.00
76321;BME280;65132;52.088;5.402;2023-04-01T04:33:53;99327.03;;;9.51;100.00
76321;BME280;65132;52.088;5.402;2023-04-01T04:36:20;99324.81;;;9.54;100.00
76321;BME280;65132;52.088;5.402;2023-04-01T04:38:47;99327.84;;;9.59;100.00
76321;BME280;65132;52.088;5.402;2023-04-01T04:41:16;99338.47;;;9.61;100.00
76321;BME280;65132;52.088;5.402;2023-04-01T04:43:50;99338.94;;;9.64;100.00
76321;BME280;65132;52.088;5.402;2023-04-01T04:46:19;99348.91;;;9.64;100.00
76321;BME280;65132;52.088;5.402;2023-04-01T04:48:46;99342.69;;;9.63;100.00
76321;BME280;65132;52.088;5.402;2023-04-01T04:51:17;99347.72;;;9.66;100.00
76321;BME280;65132;52.088;5.402;2023-04-01T04:53:45;99351.41;;;9.74;100.00
76321;BME280;65132;52.088;5.402;2023-04-01T04:56:17;99363.91;;;9.75;100.00
76321;BME280;65132;52.088;5.402;2023-04-01T04:58:47;99358.84;;;9.72;100.00
76321;BME280;65132;52.088;5.402;2023-04-01T05:01:18;99372.84;;;9.75;100.00
76321;BME280;65132;52.088;5.402;2023-04-01T05:03:45;99379.56;;;9.79;100.00
76321;BME280;65132;52.088;5.402;2023-04-01T05:06:13;99383.13;;;9.80;100.00
76321;BME280;65132;52.088;5.402;2023-04-01T05:08:42;99380.41;;;9.80;100.00
76321;BME280;65132;52.088;5.402;2023-04-01T05:11:13;99384.81;;;9.81;100.00
76321;BME280;65132;52.088;5.402;2023-04-01T05:13:41;99397.13;;;9.83;100.00
76321;BME280;65132;52.088;5.402;2023-04-01T05:16:13;99395.94;;;9.86;100.00
76321;BME280;65132;52.088;5.402;2023-04-01T05:18:39;99398.16;;;9.82;100.00
76321;BME280;65132;52.088;5.402;2023-04-01T05:21:08;99402.56;;;9.75;100.00
76321;BME280;65132;52.088;5.402;2023-04-01T05:23:37;99403.38;;;9.76;100.00
76321;BME280;65132;52.088;5.402;2023-04-01T05:26:12;99414.03;;;9.77;100.00
76321;BME280;65132;52.088;5.402;2023-04-01T05:28:38;99414.69;;;9.79;100.00
76321;BME280;65132;52.088;5.402;2023-04-01T05:31:06;99420.28;;;9.78;100.00
76321;BME280;65132;52.088;5.402;2023-04-01T05:33:35;99426.47;;;9.86;100.00
76321;BME280;65132;52.088;5.402;2023-04-01T05:36:21;99426.66;;;9.85;100.00
76321;BME280;65132;52.088;5.402;2023-04-01T05:38:48;99430.03;;;9.87;100.00
76321;BME280;65132;52.088;5.402;2023-04-01T05:41:18;99432.25;;;9.83;100.00
76321;BME280;65132;52.088;5.402;2023-04-01T05:43:47;99440.16;;;9.85;100.00
76321;BME280;65132;52.088;5.402;2023-04-01T05:46:13;99449.13;;;9.85;100.00
76321;BME280;65132;52.088;5.402;2023-04-01T05:48:42;99451.13;;;9.91;100.00
76321;BME280;65132;52.088;5.402;2023-04-01T05:51:14;99453.00;;;9.91;100.00
76321;BME280;65132;52.088;5.402;2023-04-01T05:53:41;99452.81;;;9.92;100.00
76321;BME280;65132;52.088;5.402;2023-04-01T05:56:09;99464.94;;;9.96;100.00
76321;BME280;65132;52.088;5.402;2023-04-01T05:58:39;99453.81;;;9.99;100.00
76321;BME280;65132;52.088;5.402;2023-04-01T06:01:07;99464.13;;;9.96;100.00
76321;BME280;65132;52.088;5.402;2023-04-01T06:03:39;99471.03;;;9.98;100.00
76321;BME280;65132;52.088;5.402;2023-04-01T06:06:14;99473.91;;;9.97;100.00
76321;BME280;65132;52.088;5.402;2023-04-01T06:08:42;99482.34;;;10.02;100.00
76321;BME280;65132;52.088;5.402;2023-04-01T06:11:37;99480.66;;;10.01;100.00
76321;BME280;65132;52.088;5.402;2023-04-01T06:28:25;99502.78;;;9.96;100.00
76321;BME280;65132;52.088;5.402;2023-04-01T06:31:16;99511.75;;;9.97;100.00
76321;BME280;65132;52.088;5.402;2023-04-01T06:34:19;99514.44;;;9.97;100.00
76321;BME280;65132;52.088;5.402;2023-04-01T06:37:04;99514.41;;;10.05;100.00
76321;BME280;65132;52.088;5.402;2023-04-01T06:39:51;99520.84;;;10.04;100.00
76321;BME280;65132;52.088;5.402;2023-04-01T06:53:12;99542.66;;;10.10;100.00
76321;BME280;65132;52.088;5.402;2023-04-01T06:55:47;99544.34;;;10.11;100.00
76321;BME280;65132;52.088;5.402;2023-04-01T06:58:25;99549.75;;;10.11;100.00
76321;BME280;65132;52.088;5.402;2023-04-01T07:01:02;99556.13;;;10.18;100.00
76321;BME280;65132;52.088;5.402;2023-04-01T07:03:43;99550.59;;;10.20;100.00
76321;BME280;65132;52.088;5.402;2023-04-01T07:08:52;99555.81;;;10.13;100.00
76321;BME280;65132;52.088;5.402;2023-04-01T07:11:26;99567.13;;;10.17;100.00
76321;BME280;65132;52.088;5.402;2023-04-01T07:14:00;99567.31;;;10.15;100.00
76321;BME280;65132;52.088;5.402;2023-04-01T07:16:32;99572.03;;;10.13;100.00
76321;BME280;65132;52.088;5.402;2023-04-01T07:19:04;99580.66;;;10.25;100.00
76321;BME280;65132;52.088;5.402;2023-04-01T07:21:51;99585.84;;;10.34;100.00
76321;BME280;65132;52.088;5.402;2023-04-01T07:24:26;99588.91;;;10.31;100.00
76321;BME280;65132;52.088;5.402;2023-04-01T07:26:55;99599.00;;;10.37;100.00
76321;BME280;65132;52.088;5.402;2023-04-01T07:29:26;99589.91;;;10.30;100.00
76321;BME280;65132;52.088;5.402;2023-04-01T07:32:23;99604.78;;;10.34;100.00
76321;BME280;65132;52.088;5.402;2023-04-01T07:42:39;99618.41;;;10.49;100.00
76321;BME280;65132;52.088;5.402;2023-04-01T07:47:49;99630.41;;;10.54;100.00
76321;BME280;65132;52.088;5.402;2023-04-01T07:50:32;99632.13;;;10.55;100.00
76321;BME280;65132;52.088;5.402;2023-04-01T07:56:09;99638.84;;;10.59;100.00
76321;BME280;65132;52.088;5.402;2023-04-01T07:59:06;99645.44;;;10.65;100.00
76321;BME280;65132;52.088;5.402;2023-04-01T08:01:52;99646.78;;;10.61;100.00
76321;BME280;65132;52.088;5.402;2023-04-01T08:04:31;99658.13;;;10.56;100.00
76321;BME280;65132;52.088;5.402;2023-04-01T08:07:10;99663.03;;;10.53;100.00
76321;BME280;65132;52.088;5.402;2023-04-01T08:14:58;99669.47;;;10.52;100.00
76321;BME280;65132;52.088;5.402;2023-04-01T08:20:29;99681.44;;;10.57;100.00
76321;BME280;65132;52.088;5.402;2023-04-01T08:25:44;99675.91;;;10.59;100.00
76321;BME280;65132;52.088;5.402;2023-04-01T08:28:27;99698.34;;;10.59;100.00
76321;BME280;65132;52.088;5.402;2023-04-01T08:31:07;99700.88;;;10.61;100.00
76321;BME280;65132;52.088;5.402;2023-04-01T08:33:38;99712.03;;;10.66;100.00
76321;BME280;65132;52.088;5.402;2023-04-01T08:36:24;99700.72;;;10.70;100.00
76321;BME280;65132;52.088;5.402;2023-04-01T08:39:01;99700.56;;;10.64;100.00
76321;BME280;65132;52.088;5.402;2023-04-01T08:41:58;99717.28;;;10.75;100.00
76321;BME280;65132;52.088;5.402;2023-04-01T08:44:46;99722.16;;;10.80;100.00
76321;BME280;65132;52.088;5.402;2023-04-01T08:50:12;99730.75;;;10.92;100.00
76321;BME280;65132;52.088;5.402;2023-04-01T09:01:37;99748.31;;;11.12;100.00
76321;BME280;65132;52.088;5.402;2023-04-01T09:04:25;99746.63;;;11.03;100.00
76321;BME280;65132;52.088;5.402;2023-04-01T09:10:05;99749.94;;;11.21;100.00
76321;BME280;65132;52.088;5.402;2023-04-01T09:16:02;99768.00;;;11.36;100.00
76321;BME280;65132;52.088;5.402;2023-04-01T09:35:45;99789.91;;;11.57;100.00
76321;BME280;65132;52.088;5.402;2023-04-01T09:41:39;99780.25;;;11.55;100.00
76321;BME280;65132;52.088;5.402;2023-04-01T09:44:02;99790.13;;;11.48;100.00
76321;BME280;65132;52.088;5.402;2023-04-01T09:46:55;99807.22;;;11.48;100.00
76321;BME280;65132;52.088;5.402;2023-04-01T10:03:20;99807.91;;;11.89;100.00
76321;BME280;65132;52.088;5.402;2023-04-01T10:12:13;99816.16;;;12.49;97.56
76321;BME280;65132;52.088;5.402;2023-04-01T10:20:45;99825.63;;;13.27;94.58
76321;BME280;65132;52.088;5.402;2023-04-01T10:23:59;99825.06;;;13.32;93.11
76321;BME280;65132;52.088;5.402;2023-04-01T10:33:01;99831.97;;;13.92;90.57
76321;BME280;65132;52.088;5.402;2023-04-01T10:44:11;99850.50;;;13.01;93.35
76321;BME280;65132;52.088;5.402;2023-04-01T10:47:02;99852.41;;;13.30;92.25
76321;BME280;65132;52.088;5.402;2023-04-01T10:49:55;99846.59;;;13.04;92.59
76321;BME280;65132;52.088;5.402;2023-04-01T10:56:19;99859.00;;;13.36;93.56
76321;BME280;65132;52.088;5.402;2023-04-01T11:01:43;99859.59;;;13.08;90.23
76321;BME280;65132;52.088;5.402;2023-04-01T11:30:49;99889.47;;;12.86;94.21
76321;BME280;65132;52.088;5.402;2023-04-01T11:33:44;99898.00;;;12.83;94.54
76321;BME280;65132;52.088;5.402;2023-04-01T11:38:56;99902.75;;;12.81;95.18
76321;BME280;65132;52.088;5.402;2023-04-01T11:41:32;99909.16;;;12.65;96.01
76321;BME280;65132;52.088;5.402;2023-04-01T11:44:20;99916.03;;;12.76;96.14
76321;BME280;65132;52.088;5.402;2023-04-01T11:50:10;99913.44;;;12.82;95.41
76321;BME280;65132;52.088;5.402;2023-04-01T11:53:13;99926.03;;;12.75;95.22
76321;BME280;65132;52.088;5.402;2023-04-01T11:55:56;99922.50;;;12.75;95.68
76321;BME280;65132;52.088;5.402;2023-04-01T11:58:56;99939.50;;;12.69;95.43
76321;BME280;65132;52.088;5.402;2023-04-01T12:02:42;99936.78;;;12.46;96.51
76321;BME280;65132;52.088;5.402;2023-04-01T12:04:52;99953.16;;;12.22;96.35
76321;BME280;65132;52.088;5.402;2023-04-01T12:10:48;99956.34;;;11.87;98.01
76321;BME280;65132;52.088;5.402;2023-04-01T12:19:23;99963.94;;;11.99;99.75
76321;BME280;65132;52.088;5.402;2023-04-01T12:27:38;99965.78;;;11.99;99.85
76321;BME280;65132;52.088;5.402;2023-04-01T12:30:18;99979.16;;;12.09;99.42
76321;BME280;65132;52.088;5.402;2023-04-01T12:33:01;99980.47;;;12.21;99.23
76321;BME280;65132;52.088;5.402;2023-04-01T12:35:54;99980.94;;;12.24;98.82
76321;BME280;65132;52.088;5.402;2023-04-01T12:38:36;99989.75;;;12.26;98.99
76321;BME280;65132;52.088;5.402;2023-04-01T12:41:09;99994.09;;;12.04;98.51
76321;BME280;65132;52.088;5.402;2023-04-01T12:43:55;99994.31;;;11.95;98.70
76321;BME280;65132;52.088;5.402;2023-04-01T12:46:37;99993.72;;;12.07;99.43
76321;BME280;65132;52.088;5.402;2023-04-01T12:49:30;100000.19;;;12.07;99.03
76321;BME280;65132;52.088;5.402;2023-04-01T12:52:13;99993.41;;;12.02;98.56
76321;BME280;65132;52.088;5.402;2023-04-01T12:57:34;99996.72;;;12.29;99.60
76321;BME280;65132;52.088;5.402;2023-04-01T13:06:13;100012.47;;;12.64;99.07
76321;BME280;65132;52.088;5.402;2023-04-01T13:09:06;100005.81;;;12.74;98.12
76321;BME280;65132;52.088;5.402;2023-04-01T13:20:02;100032.50;;;12.93;95.60
76321;BME280;65132;52.088;5.402;2023-04-01T13:25:39;100039.06;;;12.76;96.78
76321;BME280;65132;52.088;5.402;2023-04-01T13:28:18;100036.91;;;12.64;97.34
76321;BME280;65132;52.088;5.402;2023-04-01T13:31:19;100051.06;;;12.43;97.35
76321;BME280;65132;52.088;5.402;2023-04-01T13:39:46;100063.75;;;11.96;99.22
76321;BME280;65132;52.088;5.402;2023-04-01T13:45:00;100070.72;;;11.82;100.00
76321;BME280;65132;52.088;5.402;2023-04-01T13:50:32;100081.06;;;11.95;99.46
76321;BME280;65132;52.088;5.402;2023-04-01T13:58:40;100079.19;;;11.87;100.00
76321;BME280;65132;52.088;5.402;2023-04-01T14:01:32;100080.72;;;11.98;100.00
76321;BME280;65132;52.088;5.402;2023-04-01T14:09:52;100086.81;;;11.84;100.00
76321;BME280;65132;52.088;5.402;2023-04-01T14:18:01;100108.81;;;11.57;100.00
76321;BME280;65132;52.088;5.402;2023-04-01T14:20:48;100108.47;;;11.60;100.00
76321;BME280;65132;52.088;5.402;2023-04-01T14:23:59;100113.06;;;11.59;100.00
76321;BME280;65132;52.088;5.402;2023-04-01T14:41:06;100151.97;;;11.26;100.00
76321;BME280;65132;52.088;5.402;2023-04-01T14:47:24;100158.88;;;11.21;100.00
76321;BME280;65132;52.088;5.402;2023-04-01T14:50:06;100169.69;;;11.13;100.00
76321;BME280;65132;52.088;5.402;2023-04-01T14:52:38;100160.50;;;10.98;100.00
76321;BME280;65132;52.088;5.402;2023-04-01T14:58:15;100183.69;;;11.00;100.00
76321;BME280;65132;52.088;5.402;2023-04-01T15:09:17;100200.56;;;10.86;100.00
76321;BME280;65132;52.088;5.402;2023-04-01T15:17:30;100219.22;;;10.97;100.00
76321;BME280;65132;52.088;5.402;2023-04-01T15:29:41;100244.81;;;11.11;100.00
76321;BME280;65132;52.088;5.402;2023-04-01T15:34:52;100246.94;;;11.25;100.00
76321;BME280;65132;52.088;5.402;2023-04-01T15:43:06;100269.47;;;11.33;100.00
76321;BME280;65132;52.088;5.402;2023-04-01T15:45:44;100277.59;;;11.33;100.00
76321;BME280;65132;52.088;5.402;2023-04-01T15:51:16;100283.13;;;11.24;100.00
76321;BME280;65132;52.088;5.402;2023-04-01T15:59:54;100304.94;;;11.14;100.00
76321;BME280;65132;52.088;5.402;2023-04-01T16:02:35;100306.53;;;10.99;100.00
76321;BME280;65132;52.088;5.402;2023-04-01T16:13:42;100324.16;;;10.77;100.00
76321;BME280;65132;52.088;5.402;2023-04-01T16:16:53;100330.53;;;10.68;100.00
76321;BME280;65132;52.088;5.402;2023-04-01T16:22:13;100343.03;;;10.69;100.00
76321;BME280;65132;52.088;5.402;2023-04-01T16:24:51;100351.03;;;10.53;100.00
76321;BME280;65132;52.088;5.402;2023-04-01T16:29:51;100361.69;;;10.55;100.00
76321;BME280;65132;52.088;5.402;2023-04-01T16:32:37;100363.47;;;10.46;100.00
76321;BME280;65132;52.088;5.402;2023-04-01T16:35:29;100371.22;;;10.41;100.00
76321;BME280;65132;52.088;5.402;2023-04-01T16:41:29;100385.66;;;10.32;100.00
76321;BME280;65132;52.088;5.402;2023-04-01T16:44:20;100390.34;;;10.30;100.00
76321;BME280;65132;52.088;5.402;2023-04-01T16:46:52;100395.78;;;10.30;100.00
76321;BME280;65132;52.088;5.402;2023-04-01T16:54:55;100414.03;;;10.28;100.00
76321;BME280;65132;52.088;5.402;2023-04-01T17:00:25;100431.00;;;10.21;100.00
76321;BME280;65132;52.088;5.402;2023-04-01T17:02:57;100425.22;;;10.06;100.00
76321;BME280;65132;52.088;5.402;2023-04-01T17:08:39;100447.06;;;9.95;100.00
76321;BME280;65132;52.088;5.402;2023-04-01T17:12:16;100456.28;;;10.02;100.00
76321;BME280;65132;52.088;5.402;2023-04-01T17:23:03;100497.19;;;9.80;100.00
76321;BME280;65132;52.088;5.402;2023-04-01T17:28:52;100500.22;;;9.67;100.00
76321;BME280;65132;52.088;5.402;2023-04-01T17:31:34;100511.88;;;9.68;100.00
76321;BME280;65132;52.088;5.402;2023-04-01T17:34:31;100508.63;;;9.64;100.00
76321;BME280;65132;52.088;5.402;2023-04-01T17:40:27;100525.38;;;9.68;100.00
76321;BME280;65132;52.088;5.402;2023-04-01T17:45:56;100537.78;;;9.61;100.00
76321;BME280;65132;52.088;5.402;2023-04-01T17:48:35;100550.72;;;9.57;100.00
76321;BME280;65132;52.088;5.402;2023-04-01T17:54:05;100559.13;;;9.54;100.00
76321;BME280;65132;52.088;5.402;2023-04-01T17:59:36;100563.97;;;9.51;100.00
76321;BME280;65132;52.088;5.402;2023-04-01T18:10:35;100596.81;;;9.46;100.00
76321;BME280;65132;52.088;5.402;2023-04-01T18:22:27;100631.34;;;9.33;100.00
76321;BME280;65132;52.088;5.402;2023-04-01T18:25:12;100641.28;;;9.42;100.00
76321;BME280;65132;52.088;5.402;2023-04-01T18:28:22;100642.41;;;9.40;100.00
76321;BME280;65132;52.088;5.402;2023-04-01T18:31:17;100644.13;;;9.31;100.00
76321;BME280;65132;52.088;5.402;2023-04-01T18:36:53;100670.16;;;9.32;100.00
76321;BME280;65132;52.088;5.402;2023-04-01T18:39:35;100673.13;;;9.29;100.00
76321;BME280;65132;52.088;5.402;2023-04-01T18:42:24;100678.94;;;9.25;100.00
76321;BME280;65132;52.088;5.402;2023-04-01T18:45:10;100679.22;;;9.22;100.00
76321;BME280;65132;52.088;5.402;2023-04-01T18:52:48;100699.97;;;9.21;100.00
76321;BME280;65132;52.088;5.402;2023-04-01T18:55:46;100712.19;;;9.16;100.00
76321;BME280;65132;52.088;5.402;2023-04-01T18:58:36;100713.44;;;9.12;100.00
76321;BME280;65132;52.088;5.402;2023-04-01T19:01:15;100724.38;;;9.10;100.00
76321;BME280;65132;52.088;5.402;2023-04-01T19:03:57;100729.38;;;9.15;100.00
76321;BME280;65132;52.088;5.402;2023-04-01T19:06:41;100734.03;;;9.13;100.00
76321;BME280;65132;52.088;5.402;2023-04-01T19:09:15;100739.13;;;9.06;100.00
76321;BME280;65132;52.088;5.402;2023-04-01T19:17:15;100756.88;;;8.99;100.00
76321;BME280;65132;52.088;5.402;2023-04-01T19:22:42;100769.25;;;9.02;100.00
76321;BME280;65132;52.088;5.402;2023-04-01T19:25:42;100778.00;;;8.94;100.00
76321;BME280;65132;52.088;5.402;2023-04-01T19:30:59;100800.34;;;8.96;100.00
76321;BME280;65132;52.088;5.402;2023-04-01T19:33:40;100801.47;;;8.94;100.00
76321;BME280;65132;52.088;5.402;2023-04-01T19:36:16;100809.16;;;8.98;99.51
76321;BME280;65132;52.088;5.402;2023-04-01T19:39:04;100814.69;;;8.97;100.00
76321;BME280;65132;52.088;5.402;2023-04-01T19:41:49;100818.91;;;8.90;100.00
76321;BME280;65132;52.088;5.402;2023-04-01T19:44:34;100818.78;;;8.91;100.00
76321;BME280;65132;52.088;5.402;2023-04-01T19:47:14;100824.72;;;8.85;100.00
76321;BME280;65132;52.088;5.402;2023-04-01T19:50:09;100835.50;;;8.85;100.00
76321;BME280;65132;52.088;5.402;2023-04-01T19:52:43;100835.91;;;8.81;100.00
76321;BME280;65132;52.088;5.402;2023-04-01T20:00:57;100857.34;;;8.82;99.41
76321;BME280;65132;52.088;5.402;2023-04-01T20:09:14;100881.16;;;8.77;99.58
76321;BME280;65132;52.088;5.402;2023-04-01T20:12:03;100885.78;;;8.66;100.00
76321;BME280;65132;52.088;5.402;2023-04-01T20:14:46;100899.13;;;8.67;100.00
76321;BME280;65132;52.088;5.402;2023-04-01T20:25:33;100925.75;;;8.40;100.00
76321;BME280;65132;52.088;5.402;2023-04-01T20:31:31;100938.63;;;8.36;100.00
76321;BME280;65132;52.088;5.402;2023-04-01T20:34:18;100936.19;;;8.33;100.00
76321;BME280;65132;52.088;5.402;2023-04-01T20:39:40;100952.38;;;8.33;100.00
76321;BME280;65132;52.088;5.402;2023-04-01T20:42:18;100961.22;;;8.24;100.00
76321;BME280;65132;52.088;5.402;2023-04-01T20:50:18;100977.25;;;8.26;100.00
76321;BME280;65132;52.088;5.402;2023-04-01T20:53:16;100984.38;;;8.27;100.00
76321;BME280;65132;52.088;5.402;2023-04-01T20:58:32;100991.34;;;8.18;100.00